createdAt,value
2018-07-16T00:00:08.377Z,94.80
2018-07-16T00:02:36.569Z,95.60
2018-07-16T00:05:04.777Z,96.20
2018-07-16T00:07:32.977Z,95.70
2018-07-16T00:10:01.172Z,95.80
2018-07-16T00:12:29.367Z,95.80
2018-07-16T00:14:57.524Z,95.90
2018-07-16T00:17:25.706Z,95.90
2018-07-16T00:19:53.899Z,96.10
2018-07-16T00:22:22.148Z,95.90
2018-07-16T00:24:50.309Z,95.80
2018-07-16T00:27:18.496Z,94.70
2018-07-16T00:29:46.664Z,94.30
2018-07-16T00:32:14.895Z,94.70
2018-07-16T00:34:43.070Z,94.20
2018-07-16T00:37:11.225Z,94.10
2018-07-16T00:39:39.376Z,94.30
2018-07-16T00:42:07.540Z,94.40
2018-07-16T00:44:35.701Z,94.40
2018-07-16T00:47:03.884Z,94.20
2018-07-16T00:49:32.045Z,94.50
2018-07-16T00:52:00.219Z,95.10
2018-07-16T00:54:28.385Z,95.10
2018-07-16T00:56:56.577Z,95.70
2018-07-16T00:59:24.743Z,96.10
2018-07-16T01:01:52.933Z,96.40
2018-07-16T01:04:21.112Z,96.40
2018-07-16T01:06:49.271Z,96.70
2018-07-16T01:09:17.465Z,96.60
2018-07-16T01:11:45.639Z,96.50
2018-07-16T01:14:13.828Z,96.00
2018-07-16T01:16:42.000Z,95.90
2018-07-16T01:19:10.179Z,96.30
2018-07-16T01:21:38.341Z,96.50
2018-07-16T01:24:06.525Z,96.80
2018-07-16T01:26:34.679Z,96.70
2018-07-16T01:29:02.852Z,96.40
2018-07-16T01:31:31.020Z,95.60
2018-07-16T01:33:59.191Z,95.40
2018-07-16T01:36:27.356Z,96.00
2018-07-16T01:38:55.538Z,96.30
2018-07-16T01:41:23.717Z,96.00
2018-07-16T01:43:51.887Z,95.80
2018-07-16T01:46:20.069Z,95.90
2018-07-16T01:48:48.248Z,95.90
2018-07-16T01:51:16.415Z,95.50
2018-07-16T01:53:44.593Z,95.20
2018-07-16T01:58:47.304Z,95.90
2018-07-16T02:01:15.479Z,96.00
2018-07-16T02:03:43.664Z,96.50
2018-07-16T02:06:11.880Z,96.10
2018-07-16T02:08:40.094Z,96.40
2018-07-16T02:11:08.288Z,96.30
2018-07-16T02:13:36.506Z,96.70
2018-07-16T02:16:04.720Z,96.80
2018-07-16T02:18:32.924Z,96.50
2018-07-16T02:21:01.111Z,97.00
2018-07-16T02:23:29.307Z,97.00
2018-07-16T02:25:57.499Z,97.60
2018-07-16T02:28:25.710Z,97.70
2018-07-16T02:30:53.893Z,97.30
2018-07-16T02:33:22.091Z,97.70
2018-07-16T02:35:50.288Z,97.70
2018-07-16T02:38:18.489Z,98.20
2018-07-16T02:40:46.668Z,98.20
2018-07-16T02:43:14.835Z,97.90
2018-07-16T02:45:43.021Z,97.10
2018-07-16T02:48:11.184Z,97.40
2018-07-16T02:50:39.376Z,96.80
2018-07-16T02:53:07.577Z,96.30
2018-07-16T02:55:35.768Z,96.00
2018-07-16T02:58:03.941Z,95.90
2018-07-16T03:00:32.147Z,95.90
2018-07-16T03:03:00.305Z,95.90
2018-07-16T03:05:28.470Z,96.00
2018-07-16T03:07:56.648Z,95.80
2018-07-16T03:10:24.803Z,95.60
2018-07-16T03:12:52.979Z,95.50
2018-07-16T03:15:21.152Z,95.90
2018-07-16T03:17:49.316Z,96.50
2018-07-16T03:20:17.493Z,96.50
2018-07-16T03:22:45.656Z,96.10
2018-07-16T03:25:13.832Z,96.40
2018-07-16T03:27:41.990Z,96.20
2018-07-16T03:30:10.169Z,96.10
2018-07-16T03:32:38.340Z,95.50
2018-07-16T03:35:06.505Z,95.80
2018-07-16T03:37:34.686Z,96.30
2018-07-16T03:40:03.813Z,96.40
2018-07-16T03:42:31.996Z,96.70
2018-07-16T03:45:00.173Z,97.00
2018-07-16T03:47:28.331Z,96.40
2018-07-16T03:49:56.507Z,96.60
2018-07-16T03:52:24.672Z,96.60
2018-07-16T03:54:52.861Z,96.40
2018-07-16T03:57:21.159Z,96.60
2018-07-16T03:59:49.334Z,96.40
2018-07-16T04:02:17.509Z,96.20
2018-07-16T04:04:45.700Z,96.30
2018-07-16T04:07:13.863Z,96.40
2018-07-16T04:09:42.037Z,96.50
2018-07-16T04:12:10.211Z,96.90
2018-07-16T04:14:38.428Z,96.90
2018-07-16T04:17:06.613Z,96.20
2018-07-16T04:19:34.802Z,95.60
2018-07-16T04:22:03.000Z,95.40
2018-07-16T04:24:31.160Z,95.70
2018-07-16T04:26:59.331Z,96.00
2018-07-16T04:29:27.487Z,96.60
2018-07-16T04:31:55.651Z,97.00
2018-07-16T04:34:23.807Z,97.00
2018-07-16T04:36:51.980Z,97.00
2018-07-16T04:39:20.147Z,97.30
2018-07-16T04:41:48.327Z,97.10
2018-07-16T04:44:16.470Z,97.50
2018-07-16T04:46:44.650Z,97.10
2018-07-16T04:49:12.793Z,96.30
2018-07-16T04:51:40.984Z,95.80
2018-07-16T04:54:09.126Z,95.40
2018-07-16T04:56:37.326Z,95.70
2018-07-16T04:59:05.582Z,95.70
2018-07-16T05:01:33.774Z,95.30
2018-07-16T05:04:01.948Z,95.50
2018-07-16T05:06:30.168Z,95.50
2018-07-16T05:08:58.349Z,95.30
2018-07-16T05:11:26.531Z,95.60
2018-07-16T05:13:54.716Z,95.40
2018-07-16T05:16:24.970Z,95.50
2018-07-16T05:18:53.140Z,96.60
2018-07-16T05:21:21.357Z,96.20
2018-07-16T05:23:49.574Z,96.10
2018-07-16T05:26:19.398Z,95.40
2018-07-16T05:28:47.744Z,95.50
2018-07-16T05:31:15.996Z,95.30
2018-07-16T05:33:44.236Z,95.40
2018-07-16T05:36:12.419Z,95.40
2018-07-16T05:38:40.595Z,95.10
2018-07-16T05:41:08.778Z,95.30
2018-07-16T05:43:36.964Z,95.20
2018-07-16T05:46:05.155Z,95.70
2018-07-16T05:48:33.334Z,96.20
2018-07-16T05:51:01.503Z,96.00
2018-07-16T05:53:29.685Z,95.70
2018-07-16T05:55:57.886Z,95.30
2018-07-16T05:58:26.130Z,95.70
2018-07-16T06:00:54.295Z,95.30
2018-07-16T06:03:22.480Z,94.90
2018-07-16T06:05:50.643Z,94.90
2018-07-16T06:08:18.900Z,95.20
2018-07-16T06:10:47.050Z,95.00
2018-07-16T06:13:15.215Z,94.80
2018-07-16T06:15:43.363Z,95.10
2018-07-16T06:18:11.548Z,94.70
2018-07-16T06:20:39.694Z,94.30
2018-07-16T06:23:07.871Z,94.20
2018-07-16T06:25:36.023Z,93.80
2018-07-16T06:28:04.223Z,93.50
2018-07-16T06:30:32.387Z,93.20
2018-07-16T06:33:00.573Z,92.40
2018-07-16T06:35:28.737Z,92.60
2018-07-16T06:37:56.913Z,92.60
2018-07-16T06:40:25.314Z,92.90
2018-07-16T06:42:53.405Z,93.30
2018-07-16T06:45:21.585Z,93.30
2018-07-16T06:47:49.804Z,93.10
2018-07-16T06:50:17.930Z,92.60
2018-07-16T06:52:46.077Z,92.30
2018-07-16T06:55:14.298Z,90.20
2018-07-16T06:57:42.406Z,88.40
2018-07-16T07:00:10.596Z,86.70
2018-07-16T07:02:38.748Z,85.90
2018-07-16T07:05:06.912Z,85.60
2018-07-16T07:07:35.084Z,87.70
2018-07-16T07:10:03.302Z,86.80
2018-07-16T07:12:31.412Z,86.40
2018-07-16T07:14:59.598Z,86.50
2018-07-16T07:17:27.748Z,84.60
2018-07-16T07:19:55.943Z,84.80
2018-07-16T07:22:24.124Z,85.10
2018-07-16T07:24:52.312Z,86.00
2018-07-16T07:27:20.468Z,86.00
2018-07-16T07:29:48.641Z,85.00
2018-07-16T07:32:16.814Z,85.30
2018-07-16T07:34:44.987Z,86.50
2018-07-16T07:37:13.140Z,85.70
2018-07-16T07:39:41.308Z,85.50
2018-07-16T07:42:09.491Z,84.80
2018-07-16T07:44:37.678Z,83.90
2018-07-16T07:47:05.857Z,83.70
2018-07-16T07:49:34.030Z,83.70
2018-07-16T07:52:02.198Z,83.00
2018-07-16T07:54:30.541Z,83.30
2018-07-16T07:56:58.563Z,85.50
2018-07-16T07:59:26.755Z,83.90
2018-07-16T08:01:54.959Z,82.00
2018-07-16T08:04:23.172Z,80.90
2018-07-16T08:06:56.770Z,79.80
2018-07-16T08:09:24.979Z,78.60
2018-07-16T08:11:53.148Z,77.30
2018-07-16T08:14:21.335Z,77.20
2018-07-16T08:16:49.531Z,73.80
2018-07-16T08:19:17.750Z,70.90
2018-07-16T08:21:45.948Z,70.10
2018-07-16T08:24:14.113Z,69.60
2018-07-16T08:26:42.343Z,68.20
2018-07-16T08:29:10.529Z,67.70
2018-07-16T08:31:38.739Z,68.70
2018-07-16T08:34:07.237Z,67.00
2018-07-16T08:36:35.463Z,65.80
2018-07-16T08:39:04.845Z,65.60
2018-07-16T08:41:33.037Z,64.20
2018-07-16T08:44:01.250Z,65.00
2018-07-16T08:46:29.465Z,63.80
2018-07-16T08:48:57.640Z,63.10
2018-07-16T08:51:25.860Z,63.20
2018-07-16T08:53:54.073Z,62.00
2018-07-16T08:56:22.288Z,60.10
2018-07-16T08:58:50.479Z,60.00
2018-07-16T09:01:18.673Z,60.40
2018-07-16T09:03:46.827Z,59.00
2018-07-16T09:06:15.017Z,58.90
2018-07-16T09:08:43.191Z,58.40
2018-07-16T09:11:11.425Z,58.90
2018-07-16T09:13:39.549Z,57.60
2018-07-16T09:16:07.705Z,58.40
2018-07-16T09:18:35.872Z,58.10
2018-07-16T09:21:04.083Z,58.70
2018-07-16T09:23:32.257Z,58.20
2018-07-16T09:26:00.411Z,58.60
2018-07-16T09:28:28.599Z,56.80
2018-07-16T09:30:56.780Z,56.60
2018-07-16T09:33:24.943Z,56.60
2018-07-16T09:35:53.110Z,56.10
2018-07-16T09:38:21.288Z,57.40
2018-07-16T09:40:49.441Z,55.80
2018-07-16T09:43:17.601Z,57.40
2018-07-16T09:45:45.783Z,55.90
2018-07-16T09:48:13.945Z,54.70
2018-07-16T09:50:42.117Z,54.40
2018-07-16T09:53:10.292Z,56.60
2018-07-16T09:55:38.452Z,56.30
2018-07-16T09:58:06.658Z,56.80
2018-07-16T10:00:39.865Z,55.60
2018-07-16T10:03:08.372Z,56.30
2018-07-16T10:05:36.551Z,55.90
2018-07-16T10:08:04.797Z,55.50
2018-07-16T10:10:32.996Z,53.80
2018-07-16T10:13:01.172Z,54.70
2018-07-16T10:15:29.345Z,53.20
2018-07-16T10:17:57.560Z,54.00
2018-07-16T10:20:25.789Z,53.60
2018-07-16T10:22:53.960Z,52.00
2018-07-16T10:25:22.208Z,52.00
2018-07-16T10:27:50.415Z,51.90
2018-07-16T10:30:18.591Z,49.30
2018-07-16T10:32:46.779Z,50.60
2018-07-16T10:35:14.952Z,49.20
2018-07-16T10:37:43.149Z,48.60
2018-07-16T10:40:11.317Z,50.00
2018-07-16T10:42:39.500Z,50.50
2018-07-16T10:45:07.927Z,50.80
2018-07-16T10:47:36.162Z,50.80
2018-07-16T10:50:04.341Z,48.00
2018-07-16T10:52:32.527Z,49.10
2018-07-16T10:55:00.752Z,49.50
2018-07-16T10:57:29.330Z,48.20
2018-07-16T10:59:57.523Z,48.30
2018-07-16T11:02:25.737Z,46.90
2018-07-16T11:04:53.944Z,47.00
2018-07-16T11:07:22.169Z,47.00
2018-07-16T11:09:50.374Z,46.70
2018-07-16T11:12:18.577Z,46.70
2018-07-16T11:14:46.764Z,48.50
2018-07-16T11:17:14.953Z,48.10
2018-07-16T11:19:43.148Z,45.60
2018-07-16T11:22:11.357Z,47.40
2018-07-16T11:24:39.551Z,46.20
2018-07-16T11:27:07.770Z,44.30
2018-07-16T11:29:35.965Z,45.20
2018-07-16T11:32:04.513Z,46.10
2018-07-16T11:34:32.739Z,45.20
2018-07-16T11:37:00.983Z,45.40
2018-07-16T11:39:29.195Z,45.10
2018-07-16T11:41:57.369Z,45.30
2018-07-16T11:44:25.560Z,47.10
2018-07-16T11:46:53.749Z,46.30
2018-07-16T11:49:21.973Z,44.00
2018-07-16T11:51:50.145Z,44.10
2018-07-16T11:54:18.331Z,44.00
2018-07-16T11:56:46.511Z,46.60
2018-07-16T11:59:14.689Z,46.70
2018-07-16T12:01:42.888Z,45.50
2018-07-16T12:04:11.040Z,44.50
2018-07-16T12:06:39.212Z,44.30
2018-07-16T12:09:07.403Z,44.80
2018-07-16T12:11:35.611Z,43.70
2018-07-16T12:14:03.803Z,44.50
2018-07-16T12:16:31.963Z,44.50
2018-07-16T12:19:00.140Z,43.70
2018-07-16T12:21:28.303Z,43.60
2018-07-16T12:23:56.472Z,44.10
2018-07-16T12:26:24.889Z,43.70
2018-07-16T12:28:53.074Z,43.90
2018-07-16T12:31:21.227Z,41.60
2018-07-16T12:33:49.407Z,41.00
2018-07-16T12:36:17.690Z,42.50
2018-07-16T12:38:45.848Z,40.80
2018-07-16T12:41:14.043Z,42.50
2018-07-16T12:43:42.205Z,42.20
2018-07-16T12:46:10.380Z,40.90
2018-07-16T12:48:38.692Z,41.50
2018-07-16T12:51:06.912Z,41.90
2018-07-16T12:53:35.104Z,43.30
2018-07-16T12:56:03.281Z,42.80
2018-07-16T12:58:31.474Z,41.80
2018-07-16T13:00:59.677Z,42.70
2018-07-16T13:03:34.532Z,44.20
2018-07-16T13:06:02.930Z,46.20
2018-07-16T13:08:31.092Z,45.80
2018-07-16T13:10:59.267Z,45.10
2018-07-16T13:13:27.848Z,45.50
2018-07-16T13:15:56.073Z,46.60
2018-07-16T13:18:24.384Z,47.10
2018-07-16T13:20:52.560Z,47.20
2018-07-16T13:23:20.748Z,47.60
2018-07-16T13:25:48.932Z,46.40
2018-07-16T13:28:17.104Z,45.60
2018-07-16T13:30:45.269Z,45.10
2018-07-16T13:33:13.435Z,44.60
2018-07-16T13:35:41.620Z,44.70
2018-07-16T13:38:09.820Z,44.10
2018-07-16T13:40:38.209Z,43.90
2018-07-16T13:43:06.425Z,44.60
2018-07-16T13:45:34.629Z,43.00
2018-07-16T13:48:02.801Z,43.60
2018-07-16T13:50:31.046Z,41.50
2018-07-16T13:52:59.275Z,41.60
2018-07-16T13:55:27.461Z,41.40
2018-07-16T13:57:55.683Z,41.80
2018-07-16T14:00:30.309Z,42.00
2018-07-16T14:02:58.855Z,40.00
2018-07-16T14:05:30.063Z,41.00
2018-07-16T14:07:58.349Z,41.80
2018-07-16T14:10:26.545Z,41.40
2018-07-16T14:12:54.738Z,40.90
2018-07-16T14:15:22.926Z,41.10
2018-07-16T14:17:51.419Z,41.50
2018-07-16T14:20:19.604Z,43.20
2018-07-16T14:22:47.800Z,43.10
2018-07-16T14:25:15.981Z,43.50
2018-07-16T14:27:44.160Z,43.20
2018-07-16T14:30:12.323Z,42.10
2018-07-16T14:32:40.520Z,42.30
2018-07-16T14:35:08.695Z,43.10
2018-07-16T14:37:36.904Z,43.80
2018-07-16T14:40:05.135Z,42.80
2018-07-16T14:42:33.398Z,44.00
2018-07-16T14:45:01.577Z,44.00
2018-07-16T14:47:29.828Z,43.70
2018-07-16T14:49:57.944Z,43.50
2018-07-16T14:52:26.120Z,43.90
2018-07-16T14:54:54.648Z,43.60
2018-07-16T14:57:22.845Z,43.70
2018-07-16T14:59:51.025Z,43.80
2018-07-16T15:02:19.202Z,43.20
2018-07-16T15:04:47.382Z,43.90
2018-07-16T15:07:15.572Z,42.90
2018-07-16T15:09:43.757Z,43.40
2018-07-16T15:12:11.955Z,42.90
2018-07-16T15:14:40.131Z,41.90
2018-07-16T15:17:08.329Z,42.20
2018-07-16T15:19:36.581Z,42.20
2018-07-16T15:22:04.815Z,42.50
2018-07-16T15:24:33.028Z,42.50
2018-07-16T15:27:01.267Z,42.00
2018-07-16T15:29:29.444Z,42.30
2018-07-16T15:31:57.644Z,41.50
2018-07-16T15:34:25.838Z,41.90
2018-07-16T15:36:54.019Z,42.80
2018-07-16T15:39:22.192Z,42.60
2018-07-16T15:41:50.407Z,42.90
2018-07-16T15:44:18.617Z,42.70
2018-07-16T15:46:46.786Z,42.20
2018-07-16T15:49:14.980Z,41.80
2018-07-16T15:51:43.160Z,42.40
2018-07-16T15:54:11.348Z,43.80
2018-07-16T15:56:39.524Z,42.90
2018-07-16T15:59:07.724Z,43.00
2018-07-16T16:01:35.911Z,43.10
2018-07-16T16:04:04.103Z,43.00
2018-07-16T16:06:32.289Z,43.40
2018-07-16T16:09:00.491Z,42.60
2018-07-16T16:11:28.837Z,43.10
2018-07-16T16:13:57.029Z,42.60
2018-07-16T16:16:25.273Z,42.40
2018-07-16T16:18:53.389Z,43.80
2018-07-16T16:21:21.618Z,42.00
2018-07-16T16:23:49.850Z,42.90
2018-07-16T16:26:18.049Z,43.00
2018-07-16T16:28:46.256Z,42.90
2018-07-16T16:31:14.428Z,42.90
2018-07-16T16:33:42.667Z,42.60
2018-07-16T16:36:10.852Z,43.10
2018-07-16T16:38:39.058Z,43.40
2018-07-16T16:41:07.424Z,43.70
2018-07-16T16:43:35.634Z,43.50
2018-07-16T16:46:03.830Z,43.20
2018-07-16T16:48:32.042Z,43.50
2018-07-16T16:51:00.276Z,43.40
2018-07-16T16:53:28.489Z,43.30
2018-07-16T16:55:56.718Z,43.20
2018-07-16T16:58:24.926Z,43.20
2018-07-16T17:00:53.120Z,43.00
2018-07-16T17:03:21.296Z,42.80
2018-07-16T17:05:49.455Z,42.70
2018-07-16T17:08:17.660Z,42.80
2018-07-16T17:10:45.870Z,43.40
2018-07-16T17:13:14.036Z,43.70
2018-07-16T17:15:42.237Z,44.00
2018-07-16T17:18:10.784Z,43.60
2018-07-16T17:20:38.946Z,43.30
2018-07-16T17:23:07.148Z,43.10
2018-07-16T17:25:35.311Z,42.90
2018-07-16T17:28:03.495Z,43.00
2018-07-16T17:30:31.772Z,43.20
2018-07-16T17:33:00.016Z,43.20
2018-07-16T17:35:28.204Z,42.50
2018-07-16T17:37:56.369Z,42.40
2018-07-16T17:40:24.584Z,43.00
2018-07-16T17:42:52.723Z,43.00
2018-07-16T17:45:20.909Z,43.10
2018-07-16T17:47:49.135Z,42.50
2018-07-16T17:50:17.383Z,42.90
2018-07-16T17:52:45.550Z,43.20
2018-07-16T17:55:13.744Z,43.70
2018-07-16T17:57:41.968Z,43.90
2018-07-16T18:00:10.203Z,44.10
2018-07-16T18:02:38.551Z,45.60
2018-07-16T18:05:06.742Z,45.50
2018-07-16T18:07:34.946Z,45.60
2018-07-16T18:10:03.183Z,45.90
2018-07-16T18:12:31.375Z,46.10
2018-07-16T18:14:59.573Z,45.80
2018-07-16T18:17:27.772Z,45.90
2018-07-16T18:19:55.972Z,46.00
2018-07-16T18:22:24.519Z,46.10
2018-07-16T18:24:52.756Z,46.40
2018-07-16T18:27:20.940Z,46.60
2018-07-16T18:29:49.192Z,46.60
2018-07-16T18:32:17.412Z,46.60
2018-07-16T18:34:45.626Z,46.90
2018-07-16T18:37:13.804Z,47.20
2018-07-16T18:39:42.012Z,47.10
2018-07-16T18:42:10.235Z,47.50
2018-07-16T18:44:38.445Z,47.40
2018-07-16T18:47:06.649Z,47.40
2018-07-16T18:49:34.834Z,47.70
2018-07-16T18:52:03.032Z,48.60
2018-07-16T18:54:31.259Z,48.10
2018-07-16T18:56:59.480Z,48.10
2018-07-16T18:59:27.667Z,49.00
2018-07-16T19:01:55.838Z,49.70
2018-07-16T19:04:24.011Z,50.30
2018-07-16T19:06:52.195Z,50.90
2018-07-16T19:09:20.368Z,51.90
2018-07-16T19:11:48.549Z,50.60
2018-07-16T19:14:16.718Z,51.50
2018-07-16T19:16:45.739Z,51.80
2018-07-16T19:19:13.926Z,52.90
2018-07-16T19:21:42.112Z,53.40
2018-07-16T19:24:10.296Z,56.00
2018-07-16T19:26:38.463Z,56.30
2018-07-16T19:29:06.958Z,58.90
2018-07-16T19:31:35.139Z,58.30
2018-07-16T19:34:03.324Z,56.50
2018-07-16T19:36:31.509Z,56.30
2018-07-16T19:38:59.758Z,56.60
2018-07-16T19:41:27.877Z,55.80
2018-07-16T19:43:56.040Z,55.80
2018-07-16T19:46:24.244Z,57.40
2018-07-16T19:48:52.445Z,56.50
2018-07-16T19:51:20.712Z,56.40
2018-07-16T19:53:48.880Z,56.80
2018-07-16T19:56:17.069Z,57.80
2018-07-16T19:58:45.291Z,58.30
2018-07-16T20:01:13.489Z,57.60
2018-07-16T20:03:41.695Z,57.80
2018-07-16T20:06:09.872Z,58.00
2018-07-16T20:08:38.072Z,57.90
2018-07-16T20:11:06.641Z,58.00
2018-07-16T20:13:34.858Z,58.80
2018-07-16T20:16:03.054Z,59.10
2018-07-16T20:18:31.257Z,59.10
2018-07-16T20:21:00.594Z,59.20
2018-07-16T20:23:28.693Z,59.90
2018-07-16T20:25:58.072Z,59.70
2018-07-16T20:28:26.492Z,59.50
2018-07-16T20:30:54.780Z,60.00
2018-07-16T20:33:23.157Z,60.00
2018-07-16T20:35:51.338Z,60.80
2018-07-16T20:38:20.343Z,60.20
2018-07-16T20:40:48.531Z,60.40
2018-07-16T20:43:16.764Z,60.90
2018-07-16T20:45:44.956Z,62.10
2018-07-16T20:48:13.138Z,61.80
2018-07-16T20:50:41.330Z,61.50
2018-07-16T20:53:09.550Z,63.10
2018-07-16T20:55:37.741Z,63.10
2018-07-16T20:58:06.144Z,63.70
2018-07-16T21:00:34.391Z,64.60
2018-07-16T21:03:02.586Z,65.10
2018-07-16T21:05:30.792Z,66.90
2018-07-16T21:07:59.014Z,64.10
2018-07-16T21:10:27.201Z,63.40
2018-07-16T21:12:55.397Z,63.70
2018-07-16T21:15:23.567Z,64.60
2018-07-16T21:17:51.771Z,65.20
2018-07-16T21:20:19.982Z,65.50
2018-07-16T21:22:48.167Z,65.10
2018-07-16T21:25:16.351Z,66.30
2018-07-16T21:27:44.543Z,67.70
2018-07-16T21:30:12.816Z,68.60
2018-07-16T21:32:40.949Z,71.20
2018-07-16T21:35:15.462Z,69.10
2018-07-16T21:37:43.634Z,69.40
2018-07-16T21:40:12.064Z,68.40
2018-07-16T21:42:40.417Z,68.30
2018-07-16T21:45:08.618Z,68.50
2018-07-16T21:47:36.803Z,69.00
2018-07-16T21:50:05.020Z,69.40
2018-07-16T21:52:33.199Z,70.60
2018-07-16T21:55:01.399Z,70.50
2018-07-16T21:57:29.586Z,70.30
2018-07-16T21:59:57.784Z,70.10
2018-07-16T22:02:26.026Z,72.60
2018-07-16T22:04:54.236Z,74.50
2018-07-16T22:07:22.415Z,76.90
2018-07-16T22:09:50.789Z,76.40
2018-07-16T22:12:18.942Z,75.30
2018-07-16T22:14:47.272Z,74.00
2018-07-16T22:17:15.552Z,74.60
2018-07-16T22:19:43.736Z,75.00
2018-07-16T22:22:11.919Z,77.20
2018-07-16T22:24:40.104Z,78.30
2018-07-16T22:27:08.288Z,78.10
2018-07-16T22:29:36.476Z,80.40
2018-07-16T22:32:04.685Z,80.10
2018-07-16T22:34:32.876Z,79.20
2018-07-16T22:37:01.054Z,80.30
2018-07-16T22:39:29.242Z,81.10
2018-07-16T22:41:57.418Z,81.40
2018-07-16T22:44:25.595Z,80.90
2018-07-16T22:46:53.779Z,80.30
2018-07-16T22:49:21.969Z,80.50
2018-07-16T22:51:50.139Z,80.20
2018-07-16T22:54:18.334Z,79.90
2018-07-16T22:56:46.516Z,80.80
2018-07-16T22:59:14.723Z,80.70
2018-07-16T23:01:42.924Z,80.10
2018-07-16T23:04:11.168Z,80.90
2018-07-16T23:06:39.360Z,80.10
2018-07-16T23:09:07.600Z,79.10
2018-07-16T23:11:35.797Z,78.50
2018-07-16T23:14:04.255Z,80.40
2018-07-16T23:16:32.431Z,80.10
2018-07-16T23:19:00.605Z,80.90
2018-07-16T23:21:28.799Z,81.70
2018-07-16T23:23:56.989Z,81.80
2018-07-16T23:26:25.188Z,80.40
2018-07-16T23:28:53.363Z,80.80
2018-07-16T23:31:21.575Z,82.90
2018-07-16T23:33:49.760Z,83.10
2018-07-16T23:36:17.956Z,83.30
2018-07-16T23:38:46.132Z,81.30
2018-07-16T23:41:14.323Z,80.70
2018-07-16T23:43:42.502Z,80.80
2018-07-16T23:46:10.696Z,80.70
2018-07-16T23:48:38.870Z,80.80
2018-07-16T23:51:07.062Z,82.10
2018-07-16T23:53:35.263Z,82.70
2018-07-16T23:56:03.452Z,83.60
2018-07-16T23:58:31.844Z,81.60
